Froid, Montana
Current Conditions -  °F | °C
As of 11:03 PM on Wednesday 26 Nov 2014 (Local Time) from KISN Reporting Station
Scattered Clouds Scattered Clouds  
Wind Chill:   Ceiling: Unl
Heat Index:   Visibility: 10mi
Dew Point:   Wind: 5mph
Humidity: 84%   Direction: 170°S
Pressure: 30.34"   Gusts: NA
Location:  48.33°N, 104.5°W
Report Text: KISN 270603Z AUTO 17004KT 10SM SCT018 M13/M15 A3034 RMK AO2 T11281150
Loading
Personal Weather Stations






























Interactive Weather Map New forecast layout! Learn more

10-Day Weather Forecast

Advertisements
Track Severe Weather on mobile